Home   Weather   USA   Evansville   Past weeks
Flag for USA

Past Weather in Evansville, Indiana, USA — October 2022

Currently: 68 °F. Clear. (Weather station: Evansville Regional Airport, USA). See more current weather

October 2022 Weather in Evansville — Graph

°F

High & Low Weather Summary for October 2022

 TemperatureHumidityPressure
High81 °F (Oct 6, 3:54 pm)97% (Oct 13, 12:54 am)30.47 "Hg (Oct 13, 12:54 am)
Low31 °F (Oct 19, 11:54 pm)17% (Oct 14, 12:54 pm)29.56 "Hg (Oct 25, 4:54 pm)
Average57 °F60%30.06 "Hg
* Reported Oct 1 12:54 am — Oct 31 11:54 pm, Evansville. Weather by CustomWeather, © 2024

Note: Actual official high and low records may vary slightly from our data, if they occured in-between our weather recording intervals... More about our weather records

Evansville Weather History for October 1, 2022

Scroll right to see more
 ConditionsComfort  
Time TempWeatherWind HumidityBarometerVisibility
12:54 am
Sat, Oct 1
55 °FClear.9 mph69%30.04 "Hg10 mi
1:54 am52 °FClear.8 mph77%30.04 "Hg10 mi
2:54 am50 °FClear.7 mph80%30.04 "Hg10 mi
3:54 am50 °FClear.8 mph80%30.05 "Hg10 mi
4:54 am50 °FClear.7 mph77%30.05 "Hg10 mi
5:54 am48 °FSunny.7 mph83%30.06 "Hg10 mi
6:54 am48 °FSunny.10 mph80%30.08 "Hg10 mi
7:54 am50 °FSunny.10 mph77%30.09 "Hg10 mi
8:54 am55 °FSunny.12 mph69%30.11 "Hg10 mi
9:54 am61 °FSunny.8 mph58%30.10 "Hg10 mi
10:54 am65 °FSunny.12 mph51%30.10 "Hg10 mi
11:54 am69 °FSunny.7 mph41%30.09 "Hg10 mi
12:54 pm72 °FSunny.14 mph34%30.08 "Hg10 mi
1:54 pm75 °FSunny.14 mph31%30.06 "Hg10 mi
2:54 pm77 °FSunny.13 mph30%30.04 "Hg10 mi
3:54 pm77 °FSunny.10 mph31%30.05 "Hg10 mi
4:54 pm76 °FSunny.13 mph32%30.05 "Hg10 mi
5:54 pm73 °FClear.7 mph33%30.06 "Hg10 mi
7:54 pm65 °FClear.7 mph42%30.09 "Hg10 mi
8:54 pm64 °FClear.8 mph47%30.09 "Hg10 mi
9:54 pm64 °FClear.8 mph47%30.11 "Hg10 mi
10:54 pm60 °FClear.8 mph56%30.12 "Hg10 mi
11:54 pm59 °FClear.7 mph58%30.13 "Hg10 mi
Weather by CustomWeather, © 2024

See weather overview